Time;durP1;ratioP1;P1;durP2;ratioP2;P2;SDS_P1;SDS_P2;PMS_P1;PMS_P2;Temp;Humidity;BMP_temperature;BMP_pressure;BME280_temperature;BME280_humidity;BME280_pressure;Samples;Min_cycle;Max_cycle;Signal;HPM_P1;HPM_P2
2022/07/01 00:02:16;;;;;;;;;;;;;;;27.81;100.00;97495.56;5111334;28;19924;-63
2022/07/01 00:04:42;;;;;;;;;;;;;;;27.83;100.00;97482.25;5111136;28;20065;-62
2022/07/01 00:07:10;;;;;;;;;;;;;;;27.86;100.00;97486.94;5111053;28;19924;-63
2022/07/01 00:09:36;;;;;;;;;;;;;;;27.85;100.00;97485.38;5111388;28;19931;-62
2022/07/01 00:12:03;;;;;;;;;;;;;;;27.79;100.00;97486.91;5111052;28;20088;-64
2022/07/01 00:14:30;;;;;;;;;;;;;;;27.76;100.00;97493.19;5110873;28;19924;-63
2022/07/01 00:16:56;;;;;;;;;;;;;;;27.75;100.00;97496.31;5110796;28;19927;-62
2022/07/01 00:19:24;;;;;;;;;;;;;;;27.72;100.00;97497.09;5110855;28;19963;-62
2022/07/01 00:21:51;;;;;;;;;;;;;;;27.77;100.00;97502.19;5124597;27;19946;-62
2022/07/01 00:24:17;;;;;;;;;;;;;;;27.58;100.00;97503.28;5119226;28;19924;-62
2022/07/01 00:26:44;;;;;;;;;;;;;;;27.60;100.00;97505.66;5122204;28;19932;-62
2022/07/01 00:29:10;;;;;;;;;;;;;;;27.64;100.00;97500.94;5122589;28;19924;-62
2022/07/01 00:31:37;;;;;;;;;;;;;;;27.58;100.00;97502.50;5120539;28;19991;-62
2022/07/01 00:34:03;;;;;;;;;;;;;;;27.48;100.00;97506.75;5119085;28;19934;-62
2022/07/01 00:36:31;;;;;;;;;;;;;;;27.52;100.00;97518.53;5120027;28;20168;-62
2022/07/01 00:38:58;;;;;;;;;;;;;;;27.53;100.00;97533.03;5122578;28;19983;-63
2022/07/01 00:41:24;;;;;;;;;;;;;;;27.47;100.00;97546.34;5121893;28;19959;-63
2022/07/01 00:43:51;;;;;;;;;;;;;;;27.26;100.00;97554.38;5118630;28;19971;-62
2022/07/01 00:46:18;;;;;;;;;;;;;;;27.32;100.00;97564.63;5118846;28;19951;-63
2022/07/01 00:48:44;;;;;;;;;;;;;;;27.27;100.00;97564.16;5121825;28;19931;-62
2022/07/01 00:51:11;;;;;;;;;;;;;;;27.17;100.00;97570.38;5127495;27;19947;-62
2022/07/01 00:53:39;;;;;;;;;;;;;;;27.01;100.00;97556.94;5120041;28;19924;-62
2022/07/01 00:56:06;;;;;;;;;;;;;;;26.95;100.00;97571.34;5118511;28;19924;-62
2022/07/01 00:58:32;;;;;;;;;;;;;;;26.89;100.00;97572.88;5120060;28;19924;-63
2022/07/01 01:00:59;;;;;;;;;;;;;;;26.72;100.00;97576.97;5122022;28;19935;-63
2022/07/01 01:03:25;;;;;;;;;;;;;;;26.60;100.00;97569.03;5121583;28;19970;-63
2022/07/01 01:05:54;;;;;;;;;;;;;;;26.66;100.00;97578.47;5118249;28;20003;-63
2022/07/01 01:08:21;;;;;;;;;;;;;;;26.73;100.00;97584.81;5118324;28;19977;-62
2022/07/01 01:10:49;;;;;;;;;;;;;;;26.61;100.00;97592.53;5118008;28;19991;-62
2022/07/01 01:13:15;;;;;;;;;;;;;;;26.59;100.00;97595.63;5118107;28;20028;-63
2022/07/01 01:15:41;;;;;;;;;;;;;;;26.55;100.00;97594.03;5120773;28;19950;-62
2022/07/01 01:18:08;;;;;;;;;;;;;;;26.63;100.00;97596.47;5121624;28;19970;-62
2022/07/01 01:20:36;;;;;;;;;;;;;;;26.66;97.94;97595.72;5124256;27;19934;-62
2022/07/01 01:23:04;;;;;;;;;;;;;;;26.70;95.94;97596.53;5121601;28;20006;-62
2022/07/01 01:25:30;;;;;;;;;;;;;;;26.67;94.07;97586.34;5119468;28;19949;-62
2022/07/01 01:27:57;;;;;;;;;;;;;;;26.79;95.72;97588.00;5117788;28;19925;-62
2022/07/01 01:30:23;;;;;;;;;;;;;;;26.67;93.74;97582.81;5118120;28;19970;-61
2022/07/01 01:32:49;;;;;;;;;;;;;;;26.11;91.80;97580.19;5121456;28;19924;-62
2022/07/01 01:35:16;;;;;;;;;;;;;;;26.41;96.85;97594.63;5121625;28;19934;-62
2022/07/01 01:37:44;;;;;;;;;;;;;;;26.58;95.12;97588.59;5118803;28;19966;-62
2022/07/01 01:40:13;;;;;;;;;;;;;;;26.48;92.59;97582.97;5118180;28;19956;-62
2022/07/01 01:42:40;;;;;;;;;;;;;;;26.52;92.93;97584.59;5120386;28;19924;-62
2022/07/01 01:45:07;;;;;;;;;;;;;;;26.28;93.99;97585.88;5121469;28;20057;-62
2022/07/01 01:47:33;;;;;;;;;;;;;;;26.51;92.35;97583.03;5119980;28;20467;-63
2022/07/01 01:49:59;;;;;;;;;;;;;;;26.51;92.37;97587.72;5118037;28;19950;-62
2022/07/01 01:52:26;;;;;;;;;;;;;;;26.53;91.74;97590.84;5123664;28;19948;-62
2022/07/01 01:54:53;;;;;;;;;;;;;;;26.54;90.86;97598.72;5121141;28;19928;-61
2022/07/01 01:57:20;;;;;;;;;;;;;;;26.55;89.82;97613.19;5121554;28;20166;-63
2022/07/01 01:59:46;;;;;;;;;;;;;;;26.55;90.18;97605.78;5117806;28;19935;-62
2022/07/01 02:02:13;;;;;;;;;;;;;;;26.57;90.36;97616.34;5117633;28;20194;-62
2022/07/01 02:04:39;;;;;;;;;;;;;;;26.56;91.25;97612.00;5119936;28;19924;-62
2022/07/01 02:07:05;;;;;;;;;;;;;;;26.40;90.98;97614.19;5121099;28;19924;-62
2022/07/01 02:09:33;;;;;;;;;;;;;;;26.39;91.81;97596.97;5119892;28;19964;-63
2022/07/01 02:12:01;;;;;;;;;;;;;;;26.38;90.83;97598.13;5117429;28;19955;-62
2022/07/01 02:14:27;;;;;;;;;;;;;;;26.32;90.23;97594.16;5118338;28;19931;-62
2022/07/01 02:16:53;;;;;;;;;;;;;;;26.26;91.02;97587.44;5121236;28;19951;-63
2022/07/01 02:19:20;;;;;;;;;;;;;;;26.02;90.77;97596.09;5120918;28;20165;-62
2022/07/01 02:21:46;;;;;;;;;;;;;;;25.47;93.62;97592.16;5123228;28;19967;-63
2022/07/01 02:24:12;;;;;;;;;;;;;;;25.38;96.51;97608.03;5117465;28;19980;-62
2022/07/01 02:26:39;;;;;;;;;;;;;;;25.53;97.39;97599.69;5119803;28;19955;-62
2022/07/01 02:29:07;;;;;;;;;;;;;;;25.84;95.17;97614.22;5121367;28;19959;-62
2022/07/01 02:31:33;;;;;;;;;;;;;;;25.44;95.63;97610.06;5119844;28;19957;-62
2022/07/01 02:33:59;;;;;;;;;;;;;;;25.69;94.70;97599.53;5117339;28;19928;-62
2022/07/01 02:36:26;;;;;;;;;;;;;;;25.41;95.21;97610.03;5119628;28;19924;-63
2022/07/01 02:38:52;;;;;;;;;;;;;;;25.39;96.23;97615.06;5124638;28;19951;-61
2022/07/01 02:41:18;;;;;;;;;;;;;;;25.65;94.33;97629.59;5124837;28;19924;-62
2022/07/01 02:43:45;;;;;;;;;;;;;;;25.68;93.77;97637.06;5121239;28;19928;-63
2022/07/01 02:46:12;;;;;;;;;;;;;;;25.84;93.01;97645.09;5120879;28;19924;-63
2022/07/01 02:48:39;;;;;;;;;;;;;;;25.96;92.24;97641.34;5123179;28;19956;-62
2022/07/01 02:51:05;;;;;;;;;;;;;;;25.80;93.15;97643.47;5130161;27;19928;-63
2022/07/01 02:53:32;;;;;;;;;;;;;;;25.85;92.87;97654.06;5123656;28;20014;-63
2022/07/01 02:55:58;;;;;;;;;;;;;;;25.81;92.43;97670.44;5121181;28;19928;-61
2022/07/01 02:58:25;;;;;;;;;;;;;;;25.70;92.40;97678.50;5121447;28;19928;-62
2022/07/01 03:00:52;;;;;;;;;;;;;;;25.88;92.08;97676.03;5124305;28;19934;-62
2022/07/01 03:03:20;;;;;;;;;;;;;;;26.04;91.20;97687.59;5124531;28;19923;-62
2022/07/01 03:05:48;;;;;;;;;;;;;;;25.81;92.49;97697.03;5120600;28;19924;-64
2022/07/01 03:08:15;;;;;;;;;;;;;;;25.95;92.10;97702.69;5120934;28;19955;-63
2022/07/01 03:10:41;;;;;;;;;;;;;;;25.87;91.61;97698.28;5123380;28;19928;-62
2022/07/01 03:13:08;;;;;;;;;;;;;;;25.77;91.31;97681.34;5124250;28;19923;-61
2022/07/01 03:15:34;;;;;;;;;;;;;;;25.73;93.31;97688.69;5122663;28;19932;-62
2022/07/01 03:18:00;;;;;;;;;;;;;;;25.77;92.59;97686.03;5120967;28;19963;-62
2022/07/01 03:20:28;;;;;;;;;;;;;;;25.68;93.71;97694.50;5126793;27;19927;-62
2022/07/01 03:22:54;;;;;;;;;;;;;;;25.78;92.73;97693.84;5124101;28;20632;-63
2022/07/01 03:25:21;;;;;;;;;;;;;;;25.80;92.05;97696.22;5123833;28;19974;-62
2022/07/01 03:27:47;;;;;;;;;;;;;;;25.84;91.39;97699.03;5120545;28;19947;-62
2022/07/01 03:30:14;;;;;;;;;;;;;;;25.58;92.27;97697.84;5120629;28;19952;-62
2022/07/01 03:32:41;;;;;;;;;;;;;;;25.52;93.66;97707.50;5122826;28;19924;-63
2022/07/01 03:37:49;;;;;;;;;;;;;;;25.39;93.22;97724.41;5119202;28;19950;-62
2022/07/01 03:40:15;;;;;;;;;;;;;;;25.24;93.06;97721.44;5120272;28;19924;-62
2022/07/01 03:42:42;;;;;;;;;;;;;;;25.12;93.91;97723.53;5122697;28;19924;-62
2022/07/01 03:45:09;;;;;;;;;;;;;;;24.99;95.43;97738.50;5123349;28;19963;-63
2022/07/01 03:47:35;;;;;;;;;;;;;;;24.98;93.39;97742.38;5120762;28;19927;-62
2022/07/01 03:50:01;;;;;;;;;;;;;;;25.27;93.61;97743.72;5119830;28;20011;-63
2022/07/01 03:52:28;;;;;;;;;;;;;;;25.49;91.48;97748.44;5126056;27;19967;-62
2022/07/01 03:54:56;;;;;;;;;;;;;;;25.58;90.70;97758.00;5105156;28;19936;-62
2022/07/01 03:57:22;;;;;;;;;;;;;;;25.56;89.80;97752.09;5123179;28;19951;-62
2022/07/01 03:59:48;;;;;;;;;;;;;;;25.78;88.92;97767.72;5111140;28;20283;-63
2022/07/01 04:02:15;;;;;;;;;;;;;;;25.83;88.40;97771.31;5111172;28;19960;-62
2022/07/01 04:04:41;;;;;;;;;;;;;;;25.87;88.46;97772.16;5111142;28;19967;-62
2022/07/01 04:07:09;;;;;;;;;;;;;;;25.86;88.45;97763.16;5111092;28;19984;-63
2022/07/01 04:09:35;;;;;;;;;;;;;;;25.80;88.74;97767.34;5111075;28;19927;-62
2022/07/01 04:12:03;;;;;;;;;;;;;;;25.85;88.47;97777.97;5111267;28;19924;-62
2022/07/01 04:14:30;;;;;;;;;;;;;;;25.85;88.27;97786.19;5111120;28;19951;-62
2022/07/01 04:16:56;;;;;;;;;;;;;;;25.88;88.13;97785.47;5110952;28;20536;-62
2022/07/01 04:19:23;;;;;;;;;;;;;;;25.81;88.56;97781.81;5111172;28;19924;-62
2022/07/01 04:24:33;;;;;;;;;;;;;;;25.73;88.42;97783.66;5120536;28;19991;-62
2022/07/01 04:27:00;;;;;;;;;;;;;;;25.72;88.82;97777.38;5122781;28;19924;-61
2022/07/01 04:29:29;;;;;;;;;;;;;;;25.68;88.66;97782.00;5122184;28;20030;-63
2022/07/01 04:31:55;;;;;;;;;;;;;;;25.81;88.05;97784.56;5118976;28;19963;-62
2022/07/01 04:34:22;;;;;;;;;;;;;;;25.67;88.79;97798.78;5118891;28;19924;-63
2022/07/01 04:36:48;;;;;;;;;;;;;;;25.82;88.24;97788.84;5119003;28;19948;-62
2022/07/01 04:39:14;;;;;;;;;;;;;;;25.71;88.80;97794.97;5119068;28;19935;-63
2022/07/01 04:44:24;;;;;;;;;;;;;;;25.58;89.63;97814.63;5121945;28;19987;-62
2022/07/01 04:46:52;;;;;;;;;;;;;;;25.61;89.48;97813.91;5118835;28;19925;-61
2022/07/01 04:49:19;;;;;;;;;;;;;;;25.61;88.76;97811.97;5118780;28;19935;-63
2022/07/01 04:51:46;;;;;;;;;;;;;;;25.41;90.55;97810.38;5130049;27;19951;-62
2022/07/01 04:54:12;;;;;;;;;;;;;;;25.53;90.08;97809.47;5119000;28;19924;-62
2022/07/01 04:56:39;;;;;;;;;;;;;;;25.52;89.52;97800.47;5120901;28;19935;-61
2022/07/01 04:59:05;;;;;;;;;;;;;;;25.44;89.34;97792.47;5122427;28;19938;-62
2022/07/01 05:01:32;;;;;;;;;;;;;;;25.56;89.10;97795.06;5120858;28;19924;-62
2022/07/01 05:03:59;;;;;;;;;;;;;;;25.47;89.08;97798.00;5118773;28;19924;-61
2022/07/01 05:06:26;;;;;;;;;;;;;;;25.55;88.85;97801.69;5118943;28;19931;-61
2022/07/01 05:08:53;;;;;;;;;;;;;;;25.60;88.53;97796.69;5122106;28;19919;-61
2022/07/01 05:11:19;;;;;;;;;;;;;;;25.62;88.22;97805.34;5122190;28;20030;-61
2022/07/01 05:13:45;;;;;;;;;;;;;;;25.58;88.37;97804.50;5118585;28;19971;-62
2022/07/01 05:16:12;;;;;;;;;;;;;;;25.58;88.52;97812.69;5118534;28;19924;-62
2022/07/01 05:24:08;;;;;;;;;;;;;;;25.62;88.55;97820.97;5110039;28;19924;-63
2022/07/01 05:26:35;;;;;;;;;;;;;;;25.66;88.43;97828.06;5109644;28;19932;-62
2022/07/01 05:29:01;;;;;;;;;;;;;;;25.76;88.16;97827.47;5109566;28;19924;-62
2022/07/01 05:31:28;;;;;;;;;;;;;;;25.66;88.66;97828.06;5109741;28;19960;-61
2022/07/01 05:33:54;;;;;;;;;;;;;;;25.53;89.14;97818.44;5109914;28;19991;-62
2022/07/01 05:36:21;;;;;;;;;;;;;;;25.76;88.06;97824.75;5110068;28;19924;-63
2022/07/01 05:38:48;;;;;;;;;;;;;;;25.93;87.04;97828.16;5109510;28;19924;-62
2022/07/01 05:41:15;;;;;;;;;;;;;;;26.10;86.22;97822.16;5109858;28;19946;-62
2022/07/01 05:43:42;;;;;;;;;;;;;;;26.24;85.13;97825.19;5109431;28;19932;-62
2022/07/01 05:46:08;;;;;;;;;;;;;;;26.26;85.11;97818.19;5109358;28;20018;-63
2022/07/01 05:48:35;;;;;;;;;;;;;;;26.26;84.94;97831.88;5109357;28;19932;-62
2022/07/01 05:51:01;;;;;;;;;;;;;;;26.20;84.86;97824.31;5120027;28;19924;-62
2022/07/01 05:53:27;;;;;;;;;;;;;;;26.25;85.65;97837.69;5120232;28;19950;-63
2022/07/01 05:55:55;;;;;;;;;;;;;;;26.44;84.37;97831.34;5117455;28;19975;-62
2022/07/01 05:58:21;;;;;;;;;;;;;;;26.56;83.42;97829.19;5117946;28;19931;-62
2022/07/01 06:00:48;;;;;;;;;;;;;;;26.38;84.83;97828.13;5121290;28;19989;-63
2022/07/01 06:03:15;;;;;;;;;;;;;;;26.58;83.59;97829.63;5121385;28;19931;-63
2022/07/01 06:05:41;;;;;;;;;;;;;;;26.55;83.96;97827.63;5117978;28;19934;-64
2022/07/01 06:08:08;;;;;;;;;;;;;;;26.53;84.04;97829.13;5117739;28;19987;-63
2022/07/01 06:10:35;;;;;;;;;;;;;;;26.54;83.67;97823.28;5119974;28;19924;-62
2022/07/01 06:13:03;;;;;;;;;;;;;;;26.62;83.10;97829.66;5125261;28;19928;-62
2022/07/01 06:15:30;;;;;;;;;;;;;;;26.68;83.28;97815.25;5124330;28;19947;-62
2022/07/01 06:17:57;;;;;;;;;;;;;;;26.79;82.40;97829.13;5121556;28;19928;-62
2022/07/01 06:20:23;;;;;;;;;;;;;;;26.36;82.95;97832.41;5127068;27;19949;-62
2022/07/01 06:22:50;;;;;;;;;;;;;;;26.19;86.04;97844.63;5112700;28;20002;-62
2022/07/01 06:25:16;;;;;;;;;;;;;;;26.29;85.86;97847.56;5112976;28;20182;-62
2022/07/01 06:27:43;;;;;;;;;;;;;;;26.39;85.34;97848.09;5112739;28;19928;-62
2022/07/01 06:30:12;;;;;;;;;;;;;;;26.32;85.59;97848.75;5112752;28;19942;-63
2022/07/01 06:32:38;;;;;;;;;;;;;;;26.20;86.66;97854.44;5112626;28;20346;-63
2022/07/01 06:35:05;;;;;;;;;;;;;;;26.04;87.08;97859.22;5112584;28;19924;-62
2022/07/01 06:37:33;;;;;;;;;;;;;;;26.03;86.50;97850.22;5112432;28;19956;-63
2022/07/01 06:40:00;;;;;;;;;;;;;;;26.06;87.04;97857.69;5112556;28;20019;-63
2022/07/01 06:42:26;;;;;;;;;;;;;;;25.96;87.42;97866.53;5112471;28;19924;-62
2022/07/01 06:44:52;;;;;;;;;;;;;;;25.84;87.82;97868.66;5112277;28;19924;-62
2022/07/01 06:47:20;;;;;;;;;;;;;;;25.62;90.07;97876.47;5112681;28;19935;-62
2022/07/01 06:49:47;;;;;;;;;;;;;;;25.71;90.19;97873.50;5115860;28;19928;-62
2022/07/01 06:52:14;;;;;;;;;;;;;;;25.71;89.68;97874.28;5128883;27;20572;-61
2022/07/01 06:54:40;;;;;;;;;;;;;;;25.65;90.22;97875.75;5123401;28;19931;-62
2022/07/01 06:57:07;;;;;;;;;;;;;;;25.71;90.05;97884.44;5124638;28;19931;-62
2022/07/01 06:59:33;;;;;;;;;;;;;;;25.69;89.38;97876.56;5122986;28;19924;-62
2022/07/01 07:02:00;;;;;;;;;;;;;;;25.80;88.54;97876.78;5120643;28;19971;-62
2022/07/01 07:04:28;;;;;;;;;;;;;;;25.72;89.22;97881.31;5121134;28;19924;-62
2022/07/01 07:06:54;;;;;;;;;;;;;;;25.84;88.63;97877.66;5123949;28;19939;-62
2022/07/01 07:09:20;;;;;;;;;;;;;;;25.82;88.55;97884.63;5124196;28;19993;-62
2022/07/01 07:11:47;;;;;;;;;;;;;;;25.80;88.71;97898.66;5120518;28;19991;-62
2022/07/01 07:14:13;;;;;;;;;;;;;;;25.73;89.07;97910.25;5120567;28;20260;-62
2022/07/01 07:16:39;;;;;;;;;;;;;;;25.36;90.52;97922.78;5122777;28;19924;-62
2022/07/01 07:19:06;;;;;;;;;;;;;;;25.36;91.13;97922.78;5123868;28;19928;-63
2022/07/01 07:21:33;;;;;;;;;;;;;;;25.33;91.06;97920.75;5127989;27;19923;-62
2022/07/01 07:24:00;;;;;;;;;;;;;;;25.32;91.59;97921.09;5119116;28;20029;-63
2022/07/01 07:26:26;;;;;;;;;;;;;;;25.26;91.79;97915.13;5120539;28;19967;-62
2022/07/01 07:28:53;;;;;;;;;;;;;;;25.27;90.89;97932.31;5123633;28;19955;-62
2022/07/01 07:31:19;;;;;;;;;;;;;;;25.25;91.12;97929.97;5123476;28;19951;-62
2022/07/01 07:33:45;;;;;;;;;;;;;;;25.33;90.63;97933.63;5120189;28;20474;-62
2022/07/01 07:36:12;;;;;;;;;;;;;;;25.04;91.07;97935.75;5120021;28;20001;-62
2022/07/01 07:38:40;;;;;;;;;;;;;;;25.18;92.13;97948.94;5121812;28;19999;-62
2022/07/01 07:41:06;;;;;;;;;;;;;;;25.25;90.85;97960.81;5123259;28;19927;-63
2022/07/01 07:43:32;;;;;;;;;;;;;;;25.09;92.31;97953.81;5122015;28;19943;-62
2022/07/01 07:45:59;;;;;;;;;;;;;;;25.27;90.74;97941.31;5119777;28;19963;-62
2022/07/01 07:48:25;;;;;;;;;;;;;;;25.25;90.55;97949.88;5120406;28;19962;-62
2022/07/01 07:50:51;;;;;;;;;;;;;;;25.17;90.29;97961.00;5129507;27;19934;-62
2022/07/01 07:53:18;;;;;;;;;;;;;;;25.20;89.39;97965.75;5123495;28;19924;-62
2022/07/01 07:55:46;;;;;;;;;;;;;;;25.04;89.32;97960.34;5120535;28;19928;-62
2022/07/01 07:58:12;;;;;;;;;;;;;;;25.08;89.59;97974.88;5101768;28;20140;-61
2022/07/01 08:00:38;;;;;;;;;;;;;;;25.07;89.63;97969.75;5121845;28;19938;-62
2022/07/01 08:03:05;;;;;;;;;;;;;;;24.94;89.66;97971.03;5122509;28;19927;-62
2022/07/01 08:05:31;;;;;;;;;;;;;;;24.51;92.86;97969.19;5121626;28;19924;-63
2022/07/01 08:07:57;;;;;;;;;;;;;;;24.82;90.96;97960.22;5119268;28;19920;-62
2022/07/01 08:10:24;;;;;;;;;;;;;;;24.98;89.97;97958.22;5119406;28;19980;-63
2022/07/01 08:12:52;;;;;;;;;;;;;;;24.87;90.67;97973.59;5122475;28;19962;-61
2022/07/01 08:15:18;;;;;;;;;;;;;;;25.01;89.72;97973.91;5122572;28;19992;-62
2022/07/01 08:17:45;;;;;;;;;;;;;;;25.04;88.89;97967.72;5119568;28;19947;-62
2022/07/01 08:20:11;;;;;;;;;;;;;;;24.88;89.93;97986.13;5121635;27;20253;-64
2022/07/01 08:22:38;;;;;;;;;;;;;;;24.91;90.09;97993.59;5124041;27;19924;-62
2022/07/01 08:25:04;;;;;;;;;;;;;;;25.00;89.79;98005.13;5122636;28;20435;-62
2022/07/01 08:27:31;;;;;;;;;;;;;;;24.86;90.66;98008.31;5121633;28;19927;-63
2022/07/01 08:29:59;;;;;;;;;;;;;;;24.88;90.31;98016.16;5119002;28;19963;-62
2022/07/01 08:32:26;;;;;;;;;;;;;;;24.90;90.37;98013.88;5119354;28;19959;-63
2022/07/01 08:34:53;;;;;;;;;;;;;;;24.90;89.92;98008.41;5122231;28;19924;-62
2022/07/01 08:37:19;;;;;;;;;;;;;;;25.05;88.70;98010.31;5122556;28;19923;-62
2022/07/01 08:39:45;;;;;;;;;;;;;;;24.88;90.07;98018.91;5119346;28;19991;-62
2022/07/01 08:42:12;;;;;;;;;;;;;;;24.62;90.92;98001.06;5118872;28;19930;-62
2022/07/01 08:44:38;;;;;;;;;;;;;;;24.90;89.64;98001.00;5120764;28;19920;-63
2022/07/01 08:47:06;;;;;;;;;;;;;;;25.11;87.83;97992.50;5122490;28;19923;-64
2022/07/01 08:49:32;;;;;;;;;;;;;;;25.37;86.48;97995.44;5120856;28;20225;-62
2022/07/01 08:51:59;;;;;;;;;;;;;;;25.33;86.77;98004.69;5124429;27;19923;-63
2022/07/01 08:54:25;;;;;;;;;;;;;;;25.55;85.48;97996.66;5118820;28;19924;-61
2022/07/01 08:56:51;;;;;;;;;;;;;;;25.46;85.36;98006.16;5122120;28;20096;-61
2022/07/01 08:59:22;;;;;;;;;;;;;;;25.27;86.56;98006.13;5122151;28;19930;-62
2022/07/01 09:01:55;;;;;;;;;;;;;;;24.83;88.85;98002.75;5118423;28;19924;-63
2022/07/01 09:04:23;;;;;;;;;;;;;;;24.84;90.54;98007.88;5118494;28;20014;-62
2022/07/01 09:06:49;;;;;;;;;;;;;;;24.84;90.64;98010.59;5109521;28;19983;-65
2022/07/01 09:09:16;;;;;;;;;;;;;;;25.05;88.71;98013.84;5110002;28;19924;-62
2022/07/01 09:11:52;;;;;;;;;;;;;;;25.22;87.70;98018.91;5109791;28;19928;-62
2022/07/01 09:14:21;;;;;;;;;;;;;;;25.21;87.80;98025.56;5108938;28;20135;-64
2022/07/01 09:16:49;;;;;;;;;;;;;;;25.40;86.40;98024.81;5109562;28;19938;-62
2022/07/01 09:19:16;;;;;;;;;;;;;;;25.28;87.11;98027.66;5109761;28;19946;-62
2022/07/01 09:21:48;;;;;;;;;;;;;;;25.36;86.28;98029.41;5123686;27;19924;-63
2022/07/01 09:24:29;;;;;;;;;;;;;;;25.28;86.63;98041.31;5117946;28;19924;-61
2022/07/01 09:26:56;;;;;;;;;;;;;;;25.26;87.24;98035.41;5117900;28;20370;-62
2022/07/01 09:29:26;;;;;;;;;;;;;;;25.04;88.50;98036.84;5118205;28;19935;-62
2022/07/01 09:31:52;;;;;;;;;;;;;;;25.31;87.36;98040.63;5118104;28;19971;-64
2022/07/01 09:34:22;;;;;;;;;;;;;;;25.28;87.17;98038.59;5118128;28;19955;-62
2022/07/01 09:36:57;;;;;;;;;;;;;;;25.22;86.58;98045.47;5121330;28;20381;-62
2022/07/01 09:39:24;;;;;;;;;;;;;;;24.77;87.88;98048.63;5121793;28;19931;-62
2022/07/01 09:41:54;;;;;;;;;;;;;;;24.80;89.65;98047.94;5117910;28;19930;-63
2022/07/01 09:44:21;;;;;;;;;;;;;;;24.92;88.98;98050.59;5118054;28;19963;-61
2022/07/01 09:46:54;;;;;;;;;;;;;;;24.45;91.37;98053.28;5119940;28;19947;-61
2022/07/01 09:49:20;;;;;;;;;;;;;;;24.39;90.64;98042.94;5121528;28;19924;-61
2022/07/01 09:51:49;;;;;;;;;;;;;;;24.62;91.08;98047.50;5123942;28;19970;-63
2022/07/01 09:54:17;;;;;;;;;;;;;;;24.80;89.55;98053.41;5117892;28;19996;-62
2022/07/01 09:56:43;;;;;;;;;;;;;;;24.81;88.68;98049.56;5120180;28;19931;-61
2022/07/01 09:59:09;;;;;;;;;;;;;;;24.83;88.61;98051.94;5103236;28;19959;-62
2022/07/01 10:01:37;;;;;;;;;;;;;;;25.02;87.33;98052.81;5119462;28;19959;-62
2022/07/01 10:04:05;;;;;;;;;;;;;;;25.21;86.02;98052.88;5117572;28;19974;-62
2022/07/01 10:06:58;;;;;;;;;;;;;;;24.62;88.97;98061.16;5118364;28;19982;-62
2022/07/01 10:09:36;;;;;;;;;;;;;;;24.68;88.92;98070.66;5120923;28;19946;-62
2022/07/01 10:12:21;;;;;;;;;;;;;;;24.51;88.99;98070.22;5117502;28;19935;-63
2022/07/01 10:14:49;;;;;;;;;;;;;;;24.32;89.23;98065.41;5120892;28;19983;-62
2022/07/01 10:17:26;;;;;;;;;;;;;;;24.43;90.96;98071.94;5121433;28;19931;-62
2022/07/01 10:19:55;;;;;;;;;;;;;;;24.41;91.37;98065.25;5109161;28;19970;-61
2022/07/01 10:22:25;;;;;;;;;;;;;;;24.67;89.59;98055.41;5123623;28;19935;-62
2022/07/01 10:24:53;;;;;;;;;;;;;;;24.04;91.16;98062.66;5117581;28;19992;-63
2022/07/01 10:27:21;;;;;;;;;;;;;;;24.28;91.68;98069.19;5117597;28;20427;-62
2022/07/01 10:29:48;;;;;;;;;;;;;;;24.50;89.19;98083.06;5102655;28;19924;-62
2022/07/01 10:32:26;;;;;;;;;;;;;;;24.61;88.35;98073.19;5121059;28;19946;-61
2022/07/01 10:35:03;;;;;;;;;;;;;;;24.62;87.57;98069.34;5108876;28;20392;-61
2022/07/01 10:37:29;;;;;;;;;;;;;;;24.57;88.67;98082.47;5109188;28;19982;-63
2022/07/01 10:39:58;;;;;;;;;;;;;;;24.60;88.24;98082.53;5109071;28;20022;-62
2022/07/01 10:42:28;;;;;;;;;;;;;;;24.52;88.87;98080.75;5109312;28;19924;-62
2022/07/01 10:45:05;;;;;;;;;;;;;;;24.44;89.39;98073.53;5109071;28;20181;-62
2022/07/01 10:47:31;;;;;;;;;;;;;;;24.60;88.48;98071.59;5109160;28;19924;-62
2022/07/01 10:49:59;;;;;;;;;;;;;;;24.59;87.22;98080.97;5109026;28;19959;-62
2022/07/01 10:52:25;;;;;;;;;;;;;;;24.28;89.34;98100.00;5123573;28;19983;-62
2022/07/01 10:54:53;;;;;;;;;;;;;;;24.36;88.11;98090.06;5120891;28;19983;-62
2022/07/01 10:57:31;;;;;;;;;;;;;;;24.20;89.83;98102.88;5122716;28;19946;-62
2022/07/01 11:00:13;;;;;;;;;;;;;;;24.51;87.58;98100.25;5121133;28;19941;-62
2022/07/01 11:02:39;;;;;;;;;;;;;;;24.40;87.96;98116.31;5122284;28;19955;-62
2022/07/01 11:05:09;;;;;;;;;;;;;;;24.52;86.20;98108.06;5124683;28;19974;-62
2022/07/01 11:07:36;;;;;;;;;;;;;;;24.69;85.40;98118.69;5122810;28;19924;-63
2022/07/01 11:10:04;;;;;;;;;;;;;;;24.50;86.56;98109.56;5120978;28;19938;-64
2022/07/01 11:12:32;;;;;;;;;;;;;;;24.53;84.78;98115.13;5121555;28;19921;-62
2022/07/01 11:15:01;;;;;;;;;;;;;;;24.56;84.15;98117.16;5124368;28;20010;-63
2022/07/01 11:17:27;;;;;;;;;;;;;;;24.73;82.89;98114.09;5123711;28;19941;-63
2022/07/01 11:19:56;;;;;;;;;;;;;;;24.55;82.78;98118.28;5120640;28;19928;-61
2022/07/01 11:22:23;;;;;;;;;;;;;;;24.49;82.30;98133.34;5126790;27;19924;-62
2022/07/01 11:24:52;;;;;;;;;;;;;;;24.39;82.52;98125.66;5111980;28;19924;-63
2022/07/01 11:27:19;;;;;;;;;;;;;;;24.52;81.52;98119.00;5111824;28;20229;-63
2022/07/01 11:29:46;;;;;;;;;;;;;;;24.60;80.93;98109.84;5111818;28;19924;-63
2022/07/01 11:32:13;;;;;;;;;;;;;;;24.69;80.65;98110.50;5111682;28;19958;-62
2022/07/01 11:34:39;;;;;;;;;;;;;;;24.13;81.69;98108.94;5111970;28;19932;-63
2022/07/01 11:40:03;;;;;;;;;;;;;;;24.48;82.75;98112.63;5120243;28;19935;-62
2022/07/01 11:42:29;;;;;;;;;;;;;;;24.55;82.13;98107.38;5120863;28;19971;-62
2022/07/01 11:44:57;;;;;;;;;;;;;;;24.47;81.58;98127.44;5123693;28;19935;-63
2022/07/01 11:47:24;;;;;;;;;;;;;;;24.50;81.08;98118.56;5123785;28;19983;-61
2022/07/01 11:49:51;;;;;;;;;;;;;;;24.40;80.66;98127.25;5120291;28;19959;-63
2022/07/01 11:52:18;;;;;;;;;;;;;;;24.59;79.32;98124.66;5126130;27;19924;-62
2022/07/01 11:54:45;;;;;;;;;;;;;;;24.54;79.65;98132.31;5122920;28;20015;-63
2022/07/01 11:57:12;;;;;;;;;;;;;;;24.54;78.92;98122.16;5123908;28;19935;-62
2022/07/01 11:59:39;;;;;;;;;;;;;;;24.63;78.08;98122.78;5121667;28;19957;-63
2022/07/01 12:02:10;;;;;;;;;;;;;;;24.64;77.60;98124.41;5119802;28;19935;-62
2022/07/01 12:04:36;;;;;;;;;;;;;;;24.47;77.66;98134.84;5121513;28;19950;-63
2022/07/01 12:07:03;;;;;;;;;;;;;;;24.33;78.25;98129.75;5123016;28;19924;-63
2022/07/01 12:09:30;;;;;;;;;;;;;;;24.19;78.51;98132.09;5121595;28;20378;-63
2022/07/01 12:11:56;;;;;;;;;;;;;;;24.30;78.60;98121.47;5119441;28;19943;-62
2022/07/01 12:14:23;;;;;;;;;;;;;;;24.25;78.16;98135.38;5119880;28;20006;-62
2022/07/01 12:16:52;;;;;;;;;;;;;;;24.28;77.93;98130.03;5119681;28;19928;-63
2022/07/01 12:19:19;;;;;;;;;;;;;;;24.40;76.83;98132.69;5119657;28;19924;-61
2022/07/01 12:21:50;;;;;;;;;;;;;;;24.45;76.75;98137.13;5131229;27;19935;-62
2022/07/01 12:24:18;;;;;;;;;;;;;;;24.40;76.63;98123.72;5120177;28;19959;-62
2022/07/01 12:26:48;;;;;;;;;;;;;;;24.48;76.04;98134.47;5122887;28;19934;-63
2022/07/01 12:29:15;;;;;;;;;;;;;;;24.32;77.13;98130.94;5123498;28;20406;-62
2022/07/01 12:31:41;;;;;;;;;;;;;;;24.42;76.14;98124.94;5102789;28;19995;-62
2022/07/01 12:34:08;;;;;;;;;;;;;;;23.70;75.88;98122.41;5119506;28;19935;-67
2022/07/01 12:36:35;;;;;;;;;;;;;;;24.00;77.91;98124.50;5120531;28;19924;-62
2022/07/01 12:39:04;;;;;;;;;;;;;;;23.67;78.30;98136.75;5122754;28;19989;-62
2022/07/01 12:41:33;;;;;;;;;;;;;;;23.72;79.37;98131.03;5121835;28;19962;-62
2022/07/01 12:43:59;;;;;;;;;;;;;;;22.99;82.92;98136.47;5118921;28;19950;-63
2022/07/01 12:46:29;;;;;;;;;;;;;;;22.71;84.07;98144.47;5119366;28;19932;-63
2022/07/01 12:48:55;;;;;;;;;;;;;;;23.00;86.08;98154.38;5104340;28;19924;-63
2022/07/01 12:51:23;;;;;;;;;;;;;;;23.19;83.10;98175.63;5128667;27;19963;-63
2022/07/01 12:53:50;;;;;;;;;;;;;;;23.28;82.25;98160.78;5119082;28;19943;-62
2022/07/01 12:56:22;;;;;;;;;;;;;;;23.39;81.84;98167.41;5119302;28;19933;-62
2022/07/01 12:58:49;;;;;;;;;;;;;;;23.21;83.18;98163.25;5122234;28;19930;-63
2022/07/01 13:01:15;;;;;;;;;;;;;;;23.30;81.78;98174.09;5122395;28;20449;-62
2022/07/01 13:03:42;;;;;;;;;;;;;;;23.66;80.59;98174.13;5119683;28;19946;-62